Campanya meteocatpedra

Dades EMA Cassà de la Selva

?
?
Resum diari 22:30 TU
Dades diàries de l'estació meteorològica
Temperatura mitjana 21.0 °C
Temperatura màxima 29.0 °C 9:49 TU
Temperatura mínima 12.0 °C 4:50 TU
Humitat relativa mitjana 61%
Precipitació acumulada 0.0 mm
Ratxa màxima del vent (2 m) 24.8 km/h - 107º 12:00 TU
Irradiació solar global 29.4 MJ/m2

El tram horari està expressat en Temps Universal (TU). Cal sumar una hora en horari d'hivern i dues en horari d'estiu per passar a l'hora oficial.

Cassà de la Selva

Metadades estació meteorol´gica
Municipi Cassà de la Selva
Comarca Gironès
Altitud 171 m
Data alta 08.03.1993
Estat actual Operativa
Dades de període
Període
TU
TM
°C
TX
°C
TN
°C
HRM
%
PPT
mm
VVM (2 m)
km/h
DVM (2 m)
graus
VVX (2 m)
km/h
RS
W/m2
00:00 - 00:30 13.7 13.9 13.5 94 0.0 0.0 54 1.1 0
00:30 - 01:00 13.5 13.6 13.3 96 0.0 0.0 36 2.2 0
01:00 - 01:30 13.3 13.3 13.2 97 0.0 0.4 36 2.5 0
01:30 - 02:00 13.2 13.3 13.0 98 0.0 0.0 60 2.5 0
02:00 - 02:30 13.0 13.2 12.8 98 0.0 1.1 63 5.0 0
02:30 - 03:00 12.6 12.8 12.4 99 0.0 0.0 50 2.2 0
03:00 - 03:30 12.4 12.6 12.3 100 0.0 0.4 38 2.9 0
03:30 - 04:00 12.9 13.3 12.5 100 0.0 1.1 360 7.9 0
04:00 - 04:30 12.6 13.0 12.4 100 0.0 0.4 100 3.2 1
04:30 - 05:00 12.1 12.5 12.0 100 0.0 0.0 195 2.9 15
05:00 - 05:30 12.4 12.8 12.1 100 0.0 0.4 73 3.2 33
05:30 - 06:00 14.0 15.1 12.9 100 0.0 0.4 107 3.2 47
06:00 - 06:30 16.9 18.7 15.2 92 0.0 0.7 110 3.2 104
06:30 - 07:00 20.0 21.0 18.8 75 0.0 3.6 222 8.3 384
07:00 - 07:30 22.3 23.1 21.1 65 0.0 2.9 225 7.6 483
07:30 - 08:00 24.0 25.1 23.1 54 0.0 2.9 246 7.2 576
08:00 - 08:30 25.9 26.4 25.2 43 0.0 3.2 154 10.1 662
08:30 - 09:00 27.2 27.5 26.6 40 0.0 3.2 144 12.6 742
09:00 - 09:30 27.8 28.6 27.3 38 0.0 3.6 173 12.2 809
09:30 - 10:00 28.5 29.0 28.0 36 0.0 4.0 141 13.3 872
10:00 - 10:30 28.3 28.9 27.8 36 0.0 5.8 130 18.0 916
10:30 - 11:00 28.3 28.8 28.0 35 0.0 6.1 125 16.6 947
11:00 - 11:30 28.4 29.0 27.9 34 0.0 6.1 127 18.4 970
11:30 - 12:00 27.8 28.2 27.4 35 0.0 8.3 118 22.3 977
12:00 - 12:30 27.6 28.0 27.1 36 0.0 7.6 116 24.8 972
12:30 - 13:00 27.7 28.4 27.2 35 0.0 7.9 113 22.0 953
13:00 - 13:30 27.5 28.1 27.1 36 0.0 7.2 119 19.8 919
13:30 - 14:00 27.5 28.0 27.0 35 0.0 8.3 108 20.5 876
14:00 - 14:30 27.3 27.6 27.1 36 0.0 7.6 108 19.4 815
14:30 - 15:00 27.3 27.9 26.9 36 0.0 6.5 120 18.4 739
15:00 - 15:30 27.5 27.9 27.2 35 0.0 6.5 123 16.2 658
15:30 - 16:00 27.3 27.6 27.1 35 0.0 6.8 187 16.9 571
16:00 - 16:30 27.2 27.4 27.0 34 0.0 6.8 210 14.8 478
16:30 - 17:00 27.6 27.7 27.3 34 0.0 5.0 188 13.0 377
17:00 - 17:30 27.4 27.8 27.0 32 0.0 5.0 197 11.2 277
17:30 - 18:00 26.4 27.1 25.4 32 0.0 5.0 214 10.1 159
18:00 - 18:30 24.6 25.3 24.0 36 0.0 2.5 199 8.6 30
18:30 - 19:00 23.1 24.0 21.6 42 0.0 0.7 120 3.6 12
19:00 - 19:30 20.0 21.6 18.7 56 0.0 0.0 93 2.9 0
19:30 - 20:00 17.9 18.6 16.9 65 0.0 0.0 91 2.9 0
20:00 - 20:30 16.5 16.9 16.3 69 0.0 0.0 54 2.2 0
20:30 - 21:00 16.0 16.3 15.7 70 0.0 0.0 50 1.8 0
21:00 - 21:30 15.6 15.7 15.5 72 0.0 0.4 45 3.6 0
21:30 - 22:00 15.3 15.6 15.1 74 0.0 0.0 86 0.0 0
22:00 - 22:30 14.9 15.1 14.8 77 0.0 0.0 32 0.7 0
22:30 - 23:00 14.7 14.8 14.5 79 0.0 0.0 30 2.2 0

Les dades en taronja només han passat un control de qualitat automàtic. Resta pendent la seva validació definitiva.